sensor_id;sensor_type;location;lat;lon;timestamp;P1;durP1;ratioP1;P2;durP2;ratioP2
49828;SDS011;35723;51.194;5.112;2023-08-07T00:00:27;16.23;;;3.35;;
49828;SDS011;35723;51.194;5.112;2023-08-07T00:02:53;20.17;;;3.50;;
49828;SDS011;35723;51.194;5.112;2023-08-07T00:05:18;20.20;;;3.30;;
49828;SDS011;35723;51.194;5.112;2023-08-07T00:07:44;22.13;;;3.28;;
49828;SDS011;35723;51.194;5.112;2023-08-07T00:10:09;16.02;;;3.33;;
49828;SDS011;35723;51.194;5.112;2023-08-07T00:12:35;17.42;;;3.58;;
49828;SDS011;35723;51.194;5.112;2023-08-07T00:15:02;17.27;;;3.30;;
49828;SDS011;35723;51.194;5.112;2023-08-07T00:17:28;20.00;;;4.05;;
49828;SDS011;35723;51.194;5.112;2023-08-07T00:19:53;16.77;;;3.60;;
49828;SDS011;35723;51.194;5.112;2023-08-07T00:22:19;19.55;;;3.28;;
49828;SDS011;35723;51.194;5.112;2023-08-07T00:24:45;15.50;;;3.35;;
49828;SDS011;35723;51.194;5.112;2023-08-07T00:27:11;19.35;;;3.83;;
49828;SDS011;35723;51.194;5.112;2023-08-07T00:29:37;16.92;;;3.75;;
49828;SDS011;35723;51.194;5.112;2023-08-07T00:32:03;22.13;;;3.40;;
49828;SDS011;35723;51.194;5.112;2023-08-07T00:34:29;16.50;;;3.22;;
49828;SDS011;35723;51.194;5.112;2023-08-07T00:36:55;21.80;;;3.60;;
49828;SDS011;35723;51.194;5.112;2023-08-07T00:39:21;18.35;;;3.15;;
49828;SDS011;35723;51.194;5.112;2023-08-07T00:41:47;17.15;;;3.40;;
49828;SDS011;35723;51.194;5.112;2023-08-07T00:44:12;19.35;;;3.45;;
49828;SDS011;35723;51.194;5.112;2023-08-07T00:46:38;18.45;;;3.53;;
49828;SDS011;35723;51.194;5.112;2023-08-07T00:49:04;21.75;;;3.65;;
49828;SDS011;35723;51.194;5.112;2023-08-07T00:51:32;23.42;;;3.40;;
49828;SDS011;35723;51.194;5.112;2023-08-07T00:53:58;20.85;;;3.42;;
49828;SDS011;35723;51.194;5.112;2023-08-07T00:56:25;17.00;;;3.50;;
49828;SDS011;35723;51.194;5.112;2023-08-07T00:58:51;18.02;;;3.70;;
49828;SDS011;35723;51.194;5.112;2023-08-07T01:01:18;13.27;;;3.20;;
49828;SDS011;35723;51.194;5.112;2023-08-07T01:03:44;21.23;;;3.55;;
49828;SDS011;35723;51.194;5.112;2023-08-07T01:06:10;17.55;;;3.55;;
49828;SDS011;35723;51.194;5.112;2023-08-07T01:08:35;19.55;;;3.60;;
49828;SDS011;35723;51.194;5.112;2023-08-07T01:13:34;18.05;;;3.17;;
49828;SDS011;35723;51.194;5.112;2023-08-07T01:16:12;18.75;;;3.20;;
49828;SDS011;35723;51.194;5.112;2023-08-07T01:18:42;18.48;;;3.28;;
49828;SDS011;35723;51.194;5.112;2023-08-07T01:21:18;16.40;;;3.60;;
49828;SDS011;35723;51.194;5.112;2023-08-07T01:23:48;14.55;;;3.00;;
49828;SDS011;35723;51.194;5.112;2023-08-07T01:26:17;12.63;;;3.20;;
49828;SDS011;35723;51.194;5.112;2023-08-07T01:28:58;18.10;;;3.38;;
49828;SDS011;35723;51.194;5.112;2023-08-07T01:31:37;13.13;;;3.13;;
49828;SDS011;35723;51.194;5.112;2023-08-07T01:34:05;16.05;;;3.65;;
49828;SDS011;35723;51.194;5.112;2023-08-07T01:36:33;19.20;;;3.60;;
49828;SDS011;35723;51.194;5.112;2023-08-07T01:39:00;19.33;;;3.83;;
49828;SDS011;35723;51.194;5.112;2023-08-07T01:41:27;15.75;;;3.50;;
49828;SDS011;35723;51.194;5.112;2023-08-07T01:43:54;16.65;;;3.58;;
49828;SDS011;35723;51.194;5.112;2023-08-07T01:46:20;16.35;;;3.65;;
49828;SDS011;35723;51.194;5.112;2023-08-07T01:48:45;16.70;;;3.22;;
49828;SDS011;35723;51.194;5.112;2023-08-07T01:51:11;16.83;;;3.58;;
49828;SDS011;35723;51.194;5.112;2023-08-07T01:53:37;18.23;;;3.35;;
49828;SDS011;35723;51.194;5.112;2023-08-07T01:56:02;13.98;;;3.60;;
49828;SDS011;35723;51.194;5.112;2023-08-07T01:58:28;12.73;;;2.90;;
49828;SDS011;35723;51.194;5.112;2023-08-07T02:00:54;18.58;;;3.50;;
49828;SDS011;35723;51.194;5.112;2023-08-07T02:03:19;14.32;;;3.15;;
49828;SDS011;35723;51.194;5.112;2023-08-07T02:05:45;16.45;;;3.60;;
49828;SDS011;35723;51.194;5.112;2023-08-07T02:08:11;15.23;;;3.42;;
49828;SDS011;35723;51.194;5.112;2023-08-07T02:10:37;12.23;;;3.00;;
49828;SDS011;35723;51.194;5.112;2023-08-07T02:13:03;14.77;;;3.40;;
49828;SDS011;35723;51.194;5.112;2023-08-07T02:15:29;18.48;;;3.15;;
49828;SDS011;35723;51.194;5.112;2023-08-07T02:17:54;18.70;;;3.17;;
49828;SDS011;35723;51.194;5.112;2023-08-07T02:20:20;19.33;;;3.42;;
49828;SDS011;35723;51.194;5.112;2023-08-07T02:22:45;13.98;;;3.70;;
49828;SDS011;35723;51.194;5.112;2023-08-07T02:25:11;15.25;;;3.15;;
49828;SDS011;35723;51.194;5.112;2023-08-07T02:27:37;17.85;;;3.35;;
49828;SDS011;35723;51.194;5.112;2023-08-07T02:30:02;15.48;;;3.53;;
49828;SDS011;35723;51.194;5.112;2023-08-07T02:32:29;18.48;;;4.18;;
49828;SDS011;35723;51.194;5.112;2023-08-07T02:34:55;15.07;;;3.80;;
49828;SDS011;35723;51.194;5.112;2023-08-07T02:37:20;15.80;;;3.47;;
49828;SDS011;35723;51.194;5.112;2023-08-07T02:39:46;15.73;;;3.63;;
49828;SDS011;35723;51.194;5.112;2023-08-07T02:42:12;15.65;;;3.28;;
49828;SDS011;35723;51.194;5.112;2023-08-07T02:44:37;20.75;;;3.60;;
49828;SDS011;35723;51.194;5.112;2023-08-07T02:47:03;18.92;;;3.78;;
49828;SDS011;35723;51.194;5.112;2023-08-07T02:49:29;15.07;;;3.20;;
49828;SDS011;35723;51.194;5.112;2023-08-07T02:51:55;19.60;;;3.95;;
49828;SDS011;35723;51.194;5.112;2023-08-07T02:54:20;14.95;;;3.67;;
49828;SDS011;35723;51.194;5.112;2023-08-07T02:56:46;18.15;;;3.38;;
49828;SDS011;35723;51.194;5.112;2023-08-07T02:59:13;17.88;;;3.83;;
49828;SDS011;35723;51.194;5.112;2023-08-07T03:01:39;19.88;;;3.63;;
49828;SDS011;35723;51.194;5.112;2023-08-07T03:04:05;15.50;;;3.58;;
49828;SDS011;35723;51.194;5.112;2023-08-07T03:06:31;24.65;;;3.80;;
49828;SDS011;35723;51.194;5.112;2023-08-07T03:08:57;14.32;;;3.38;;
49828;SDS011;35723;51.194;5.112;2023-08-07T03:11:22;14.50;;;3.55;;
49828;SDS011;35723;51.194;5.112;2023-08-07T03:13:48;15.23;;;3.63;;
49828;SDS011;35723;51.194;5.112;2023-08-07T03:16:14;18.58;;;3.80;;
49828;SDS011;35723;51.194;5.112;2023-08-07T03:18:40;17.30;;;3.67;;
49828;SDS011;35723;51.194;5.112;2023-08-07T03:21:05;15.80;;;3.53;;
49828;SDS011;35723;51.194;5.112;2023-08-07T03:23:31;18.85;;;3.90;;
49828;SDS011;35723;51.194;5.112;2023-08-07T03:26:04;21.27;;;3.65;;
49828;SDS011;35723;51.194;5.112;2023-08-07T03:28:34;17.80;;;3.40;;
49828;SDS011;35723;51.194;5.112;2023-08-07T03:31:00;16.30;;;3.33;;
49828;SDS011;35723;51.194;5.112;2023-08-07T03:33:26;15.88;;;3.47;;
49828;SDS011;35723;51.194;5.112;2023-08-07T03:35:52;14.55;;;3.42;;
49828;SDS011;35723;51.194;5.112;2023-08-07T03:38:18;16.52;;;3.15;;
49828;SDS011;35723;51.194;5.112;2023-08-07T03:40:43;16.92;;;3.30;;
49828;SDS011;35723;51.194;5.112;2023-08-07T03:43:09;16.20;;;3.60;;
49828;SDS011;35723;51.194;5.112;2023-08-07T03:45:35;18.65;;;3.30;;
49828;SDS011;35723;51.194;5.112;2023-08-07T03:48:01;15.45;;;3.10;;
49828;SDS011;35723;51.194;5.112;2023-08-07T03:50:27;13.95;;;3.20;;
49828;SDS011;35723;51.194;5.112;2023-08-07T03:52:52;15.50;;;3.50;;
49828;SDS011;35723;51.194;5.112;2023-08-07T03:55:18;22.00;;;3.60;;
49828;SDS011;35723;51.194;5.112;2023-08-07T03:57:44;20.23;;;3.50;;
49828;SDS011;35723;51.194;5.112;2023-08-07T04:00:10;12.82;;;3.33;;
49828;SDS011;35723;51.194;5.112;2023-08-07T04:02:36;16.35;;;3.38;;
49828;SDS011;35723;51.194;5.112;2023-08-07T04:05:02;16.05;;;3.58;;
49828;SDS011;35723;51.194;5.112;2023-08-07T04:07:27;13.55;;;3.28;;
49828;SDS011;35723;51.194;5.112;2023-08-07T04:09:53;15.77;;;3.47;;
49828;SDS011;35723;51.194;5.112;2023-08-07T04:12:19;10.85;;;2.75;;
49828;SDS011;35723;51.194;5.112;2023-08-07T04:14:44;17.40;;;3.47;;
49828;SDS011;35723;51.194;5.112;2023-08-07T04:17:10;14.70;;;3.45;;
49828;SDS011;35723;51.194;5.112;2023-08-07T04:19:36;16.17;;;3.50;;
49828;SDS011;35723;51.194;5.112;2023-08-07T04:22:02;16.13;;;3.30;;
49828;SDS011;35723;51.194;5.112;2023-08-07T04:24:27;14.77;;;3.00;;
49828;SDS011;35723;51.194;5.112;2023-08-07T04:26:53;12.57;;;3.35;;
49828;SDS011;35723;51.194;5.112;2023-08-07T04:29:19;12.85;;;2.90;;
49828;SDS011;35723;51.194;5.112;2023-08-07T04:31:44;17.08;;;3.45;;
49828;SDS011;35723;51.194;5.112;2023-08-07T04:34:10;14.35;;;3.85;;
49828;SDS011;35723;51.194;5.112;2023-08-07T04:36:37;17.95;;;3.78;;
49828;SDS011;35723;51.194;5.112;2023-08-07T04:39:03;13.15;;;3.05;;
49828;SDS011;35723;51.194;5.112;2023-08-07T04:41:28;13.25;;;3.25;;
49828;SDS011;35723;51.194;5.112;2023-08-07T04:43:54;14.00;;;3.20;;
49828;SDS011;35723;51.194;5.112;2023-08-07T04:46:20;13.93;;;3.10;;
49828;SDS011;35723;51.194;5.112;2023-08-07T04:48:45;13.95;;;3.40;;
49828;SDS011;35723;51.194;5.112;2023-08-07T04:51:12;16.23;;;3.50;;
49828;SDS011;35723;51.194;5.112;2023-08-07T04:53:38;14.50;;;3.63;;
49828;SDS011;35723;51.194;5.112;2023-08-07T04:56:04;18.23;;;3.40;;
49828;SDS011;35723;51.194;5.112;2023-08-07T04:58:29;14.73;;;3.30;;
49828;SDS011;35723;51.194;5.112;2023-08-07T05:00:55;16.27;;;3.67;;
49828;SDS011;35723;51.194;5.112;2023-08-07T05:03:21;13.75;;;3.80;;
49828;SDS011;35723;51.194;5.112;2023-08-07T05:05:47;15.88;;;3.40;;
49828;SDS011;35723;51.194;5.112;2023-08-07T05:08:13;19.42;;;3.58;;
49828;SDS011;35723;51.194;5.112;2023-08-07T05:10:38;16.42;;;3.60;;
49828;SDS011;35723;51.194;5.112;2023-08-07T05:13:04;15.18;;;3.60;;
49828;SDS011;35723;51.194;5.112;2023-08-07T05:15:29;14.38;;;3.90;;
49828;SDS011;35723;51.194;5.112;2023-08-07T05:17:56;17.83;;;3.90;;
49828;SDS011;35723;51.194;5.112;2023-08-07T05:20:22;14.70;;;3.70;;
49828;SDS011;35723;51.194;5.112;2023-08-07T05:22:48;17.48;;;4.20;;
49828;SDS011;35723;51.194;5.112;2023-08-07T05:25:14;13.35;;;3.20;;
49828;SDS011;35723;51.194;5.112;2023-08-07T05:27:47;12.35;;;3.42;;
49828;SDS011;35723;51.194;5.112;2023-08-07T05:30:13;14.70;;;3.80;;
49828;SDS011;35723;51.194;5.112;2023-08-07T05:32:39;14.80;;;3.45;;
49828;SDS011;35723;51.194;5.112;2023-08-07T05:35:05;16.25;;;3.55;;
49828;SDS011;35723;51.194;5.112;2023-08-07T05:37:32;15.23;;;3.72;;
49828;SDS011;35723;51.194;5.112;2023-08-07T05:39:58;15.23;;;3.40;;
49828;SDS011;35723;51.194;5.112;2023-08-07T05:42:24;20.58;;;4.03;;
49828;SDS011;35723;51.194;5.112;2023-08-07T05:44:50;14.10;;;3.40;;
49828;SDS011;35723;51.194;5.112;2023-08-07T05:47:15;13.73;;;3.75;;
49828;SDS011;35723;51.194;5.112;2023-08-07T05:49:41;17.67;;;3.90;;
49828;SDS011;35723;51.194;5.112;2023-08-07T05:52:07;12.82;;;3.40;;
49828;SDS011;35723;51.194;5.112;2023-08-07T05:54:33;17.80;;;3.70;;
49828;SDS011;35723;51.194;5.112;2023-08-07T05:56:59;13.32;;;3.55;;
49828;SDS011;35723;51.194;5.112;2023-08-07T05:59:24;14.85;;;3.47;;
49828;SDS011;35723;51.194;5.112;2023-08-07T06:01:50;17.58;;;3.92;;
49828;SDS011;35723;51.194;5.112;2023-08-07T06:04:16;12.48;;;3.50;;
49828;SDS011;35723;51.194;5.112;2023-08-07T06:06:42;14.40;;;3.40;;
49828;SDS011;35723;51.194;5.112;2023-08-07T06:09:08;14.70;;;3.83;;
49828;SDS011;35723;51.194;5.112;2023-08-07T06:11:34;14.50;;;3.75;;
49828;SDS011;35723;51.194;5.112;2023-08-07T06:14:00;15.10;;;3.78;;
49828;SDS011;35723;51.194;5.112;2023-08-07T06:16:26;16.67;;;3.30;;
49828;SDS011;35723;51.194;5.112;2023-08-07T06:18:52;19.77;;;4.32;;
49828;SDS011;35723;51.194;5.112;2023-08-07T06:21:18;16.23;;;3.97;;
49828;SDS011;35723;51.194;5.112;2023-08-07T06:23:45;15.35;;;3.83;;
49828;SDS011;35723;51.194;5.112;2023-08-07T06:26:11;18.23;;;4.10;;
49828;SDS011;35723;51.194;5.112;2023-08-07T06:28:36;15.38;;;3.60;;
49828;SDS011;35723;51.194;5.112;2023-08-07T06:31:02;15.88;;;3.58;;
49828;SDS011;35723;51.194;5.112;2023-08-07T06:33:30;14.07;;;3.58;;
49828;SDS011;35723;51.194;5.112;2023-08-07T06:35:56;10.52;;;3.03;;
49828;SDS011;35723;51.194;5.112;2023-08-07T06:38:22;14.65;;;3.55;;
49828;SDS011;35723;51.194;5.112;2023-08-07T06:40:48;17.23;;;3.50;;
49828;SDS011;35723;51.194;5.112;2023-08-07T06:43:13;14.57;;;3.45;;
49828;SDS011;35723;51.194;5.112;2023-08-07T06:45:39;14.77;;;3.60;;
49828;SDS011;35723;51.194;5.112;2023-08-07T06:48:05;15.48;;;4.18;;
49828;SDS011;35723;51.194;5.112;2023-08-07T06:50:30;15.35;;;3.70;;
49828;SDS011;35723;51.194;5.112;2023-08-07T06:52:56;15.02;;;4.00;;
49828;SDS011;35723;51.194;5.112;2023-08-07T06:55:22;16.00;;;3.78;;
49828;SDS011;35723;51.194;5.112;2023-08-07T06:57:47;11.52;;;3.58;;
49828;SDS011;35723;51.194;5.112;2023-08-07T07:00:14;15.25;;;3.70;;
49828;SDS011;35723;51.194;5.112;2023-08-07T07:02:40;15.07;;;3.60;;
49828;SDS011;35723;51.194;5.112;2023-08-07T07:05:06;13.75;;;3.55;;
49828;SDS011;35723;51.194;5.112;2023-08-07T07:07:32;13.63;;;3.80;;
49828;SDS011;35723;51.194;5.112;2023-08-07T07:09:57;13.32;;;3.22;;
49828;SDS011;35723;51.194;5.112;2023-08-07T07:12:25;10.75;;;3.28;;
49828;SDS011;35723;51.194;5.112;2023-08-07T07:14:51;11.77;;;3.60;;
49828;SDS011;35723;51.194;5.112;2023-08-07T07:17:17;16.77;;;3.72;;
49828;SDS011;35723;51.194;5.112;2023-08-07T07:19:43;12.27;;;3.50;;
49828;SDS011;35723;51.194;5.112;2023-08-07T07:22:08;15.60;;;4.00;;
49828;SDS011;35723;51.194;5.112;2023-08-07T07:24:34;17.63;;;3.50;;
49828;SDS011;35723;51.194;5.112;2023-08-07T07:27:00;16.02;;;3.80;;
49828;SDS011;35723;51.194;5.112;2023-08-07T07:29:26;18.30;;;3.95;;
49828;SDS011;35723;51.194;5.112;2023-08-07T07:31:51;17.45;;;3.45;;
49828;SDS011;35723;51.194;5.112;2023-08-07T07:34:18;11.15;;;3.53;;
49828;SDS011;35723;51.194;5.112;2023-08-07T07:36:44;14.27;;;3.50;;
49828;SDS011;35723;51.194;5.112;2023-08-07T07:39:10;10.93;;;3.08;;
49828;SDS011;35723;51.194;5.112;2023-08-07T07:41:36;11.77;;;3.42;;
49828;SDS011;35723;51.194;5.112;2023-08-07T07:44:02;12.80;;;3.25;;
49828;SDS011;35723;51.194;5.112;2023-08-07T07:46:27;13.10;;;3.65;;
49828;SDS011;35723;51.194;5.112;2023-08-07T07:48:53;13.90;;;3.63;;
49828;SDS011;35723;51.194;5.112;2023-08-07T07:51:21;13.77;;;3.40;;
49828;SDS011;35723;51.194;5.112;2023-08-07T07:53:46;12.88;;;3.40;;
49828;SDS011;35723;51.194;5.112;2023-08-07T07:56:12;13.25;;;3.15;;
49828;SDS011;35723;51.194;5.112;2023-08-07T07:58:38;17.80;;;3.60;;
49828;SDS011;35723;51.194;5.112;2023-08-07T08:01:05;15.85;;;3.33;;
49828;SDS011;35723;51.194;5.112;2023-08-07T08:03:32;13.52;;;3.42;;
49828;SDS011;35723;51.194;5.112;2023-08-07T08:05:58;13.70;;;4.15;;
49828;SDS011;35723;51.194;5.112;2023-08-07T08:08:24;13.55;;;3.13;;
49828;SDS011;35723;51.194;5.112;2023-08-07T08:10:49;17.75;;;3.25;;
49828;SDS011;35723;51.194;5.112;2023-08-07T08:13:16;13.15;;;2.65;;
49828;SDS011;35723;51.194;5.112;2023-08-07T08:15:42;15.20;;;3.10;;
49828;SDS011;35723;51.194;5.112;2023-08-07T08:18:08;14.70;;;3.50;;
49828;SDS011;35723;51.194;5.112;2023-08-07T08:20:34;15.30;;;3.30;;
49828;SDS011;35723;51.194;5.112;2023-08-07T08:23:00;13.82;;;3.40;;
49828;SDS011;35723;51.194;5.112;2023-08-07T08:25:26;12.93;;;2.72;;
49828;SDS011;35723;51.194;5.112;2023-08-07T08:27:52;13.80;;;3.00;;
49828;SDS011;35723;51.194;5.112;2023-08-07T08:30:17;12.35;;;2.95;;
49828;SDS011;35723;51.194;5.112;2023-08-07T08:32:43;12.45;;;2.92;;
49828;SDS011;35723;51.194;5.112;2023-08-07T08:35:09;12.80;;;2.78;;
49828;SDS011;35723;51.194;5.112;2023-08-07T08:37:34;11.30;;;2.70;;
49828;SDS011;35723;51.194;5.112;2023-08-07T08:40:00;14.23;;;3.20;;
49828;SDS011;35723;51.194;5.112;2023-08-07T08:42:26;12.88;;;2.85;;
49828;SDS011;35723;51.194;5.112;2023-08-07T08:44:53;9.75;;;2.85;;
49828;SDS011;35723;51.194;5.112;2023-08-07T08:47:25;12.50;;;3.03;;
49828;SDS011;35723;51.194;5.112;2023-08-07T08:50:02;15.95;;;3.20;;
49828;SDS011;35723;51.194;5.112;2023-08-07T08:52:31;13.20;;;2.85;;
49828;SDS011;35723;51.194;5.112;2023-08-07T08:54:57;10.32;;;2.72;;
49828;SDS011;35723;51.194;5.112;2023-08-07T08:57:27;10.68;;;2.70;;
49828;SDS011;35723;51.194;5.112;2023-08-07T08:59:55;10.95;;;2.65;;
49828;SDS011;35723;51.194;5.112;2023-08-07T09:02:23;10.30;;;2.83;;
49828;SDS011;35723;51.194;5.112;2023-08-07T09:04:50;12.18;;;2.60;;
49828;SDS011;35723;51.194;5.112;2023-08-07T09:07:16;15.65;;;3.33;;
49828;SDS011;35723;51.194;5.112;2023-08-07T09:09:44;16.15;;;2.60;;
49828;SDS011;35723;51.194;5.112;2023-08-07T09:12:29;9.38;;;2.55;;
49828;SDS011;35723;51.194;5.112;2023-08-07T09:14:58;12.25;;;2.50;;
49828;SDS011;35723;51.194;5.112;2023-08-07T09:17:27;16.42;;;2.78;;
49828;SDS011;35723;51.194;5.112;2023-08-07T09:19:54;12.27;;;2.60;;
49828;SDS011;35723;51.194;5.112;2023-08-07T09:22:20;11.45;;;2.60;;
49828;SDS011;35723;51.194;5.112;2023-08-07T09:24:46;14.95;;;2.92;;
49828;SDS011;35723;51.194;5.112;2023-08-07T09:27:12;14.40;;;2.47;;
49828;SDS011;35723;51.194;5.112;2023-08-07T09:29:43;13.35;;;2.65;;
49828;SDS011;35723;51.194;5.112;2023-08-07T09:32:11;14.55;;;2.80;;
49828;SDS011;35723;51.194;5.112;2023-08-07T09:34:41;14.85;;;2.90;;
49828;SDS011;35723;51.194;5.112;2023-08-07T09:37:08;13.77;;;2.55;;
49828;SDS011;35723;51.194;5.112;2023-08-07T09:39:34;9.75;;;2.70;;
49828;SDS011;35723;51.194;5.112;2023-08-07T09:42:01;13.45;;;2.80;;
49828;SDS011;35723;51.194;5.112;2023-08-07T09:44:37;14.27;;;2.90;;
49828;SDS011;35723;51.194;5.112;2023-08-07T09:47:12;7.40;;;2.70;;
49828;SDS011;35723;51.194;5.112;2023-08-07T09:49:39;9.40;;;2.70;;
49828;SDS011;35723;51.194;5.112;2023-08-07T09:52:06;12.00;;;2.63;;
49828;SDS011;35723;51.194;5.112;2023-08-07T09:54:32;9.57;;;2.50;;
49828;SDS011;35723;51.194;5.112;2023-08-07T09:56:59;11.50;;;2.80;;
49828;SDS011;35723;51.194;5.112;2023-08-07T09:59:26;12.80;;;3.00;;
49828;SDS011;35723;51.194;5.112;2023-08-07T10:01:53;14.27;;;2.92;;
49828;SDS011;35723;51.194;5.112;2023-08-07T10:04:21;11.70;;;3.13;;
49828;SDS011;35723;51.194;5.112;2023-08-07T10:06:47;10.77;;;2.90;;
49828;SDS011;35723;51.194;5.112;2023-08-07T10:09:13;11.68;;;2.90;;
49828;SDS011;35723;51.194;5.112;2023-08-07T10:11:39;10.63;;;2.70;;
49828;SDS011;35723;51.194;5.112;2023-08-07T10:14:06;9.30;;;2.85;;
49828;SDS011;35723;51.194;5.112;2023-08-07T10:16:33;14.52;;;3.17;;
49828;SDS011;35723;51.194;5.112;2023-08-07T10:19:04;10.15;;;3.00;;
49828;SDS011;35723;51.194;5.112;2023-08-07T10:21:39;11.90;;;3.13;;
49828;SDS011;35723;51.194;5.112;2023-08-07T10:24:05;8.73;;;2.90;;
49828;SDS011;35723;51.194;5.112;2023-08-07T10:26:33;12.93;;;3.33;;
49828;SDS011;35723;51.194;5.112;2023-08-07T10:29:00;11.15;;;3.10;;
49828;SDS011;35723;51.194;5.112;2023-08-07T10:31:29;14.48;;;3.38;;
49828;SDS011;35723;51.194;5.112;2023-08-07T10:33:56;10.18;;;3.03;;
49828;SDS011;35723;51.194;5.112;2023-08-07T10:36:22;11.25;;;3.03;;
49828;SDS011;35723;51.194;5.112;2023-08-07T10:38:51;11.48;;;2.90;;
49828;SDS011;35723;51.194;5.112;2023-08-07T10:41:38;10.43;;;2.70;;
49828;SDS011;35723;51.194;5.112;2023-08-07T10:46:51;14.82;;;3.00;;
49828;SDS011;35723;51.194;5.112;2023-08-07T10:49:38;10.73;;;2.45;;
49828;SDS011;35723;51.194;5.112;2023-08-07T10:52:09;5.65;;;2.40;;
49828;SDS011;35723;51.194;5.112;2023-08-07T10:54:47;9.73;;;2.65;;
49828;SDS011;35723;51.194;5.112;2023-08-07T10:57:15;14.93;;;2.90;;
49828;SDS011;35723;51.194;5.112;2023-08-07T11:00:04;11.80;;;3.05;;
49828;SDS011;35723;51.194;5.112;2023-08-07T11:02:31;8.60;;;2.78;;
49828;SDS011;35723;51.194;5.112;2023-08-07T11:04:58;10.20;;;2.70;;
49828;SDS011;35723;51.194;5.112;2023-08-07T11:07:25;10.65;;;2.92;;
49828;SDS011;35723;51.194;5.112;2023-08-07T11:09:52;11.90;;;3.15;;
49828;SDS011;35723;51.194;5.112;2023-08-07T11:12:18;11.48;;;2.60;;
49828;SDS011;35723;51.194;5.112;2023-08-07T11:14:44;8.27;;;2.90;;
49828;SDS011;35723;51.194;5.112;2023-08-07T11:17:10;9.85;;;3.05;;
49828;SDS011;35723;51.194;5.112;2023-08-07T11:19:35;14.45;;;4.15;;
49828;SDS011;35723;51.194;5.112;2023-08-07T11:22:01;11.80;;;3.10;;
49828;SDS011;35723;51.194;5.112;2023-08-07T11:24:27;11.45;;;3.10;;
49828;SDS011;35723;51.194;5.112;2023-08-07T11:26:53;13.32;;;2.90;;
49828;SDS011;35723;51.194;5.112;2023-08-07T11:29:21;9.43;;;2.90;;
49828;SDS011;35723;51.194;5.112;2023-08-07T11:31:49;7.25;;;2.60;;
49828;SDS011;35723;51.194;5.112;2023-08-07T11:34:18;8.82;;;2.60;;
49828;SDS011;35723;51.194;5.112;2023-08-07T11:36:44;9.90;;;2.75;;
49828;SDS011;35723;51.194;5.112;2023-08-07T11:39:11;9.13;;;2.45;;
49828;SDS011;35723;51.194;5.112;2023-08-07T11:41:37;8.90;;;2.40;;
49828;SDS011;35723;51.194;5.112;2023-08-07T11:44:03;9.00;;;2.50;;
49828;SDS011;35723;51.194;5.112;2023-08-07T11:46:29;8.30;;;2.45;;
49828;SDS011;35723;51.194;5.112;2023-08-07T11:48:55;7.00;;;2.45;;
49828;SDS011;35723;51.194;5.112;2023-08-07T11:51:22;8.00;;;2.30;;
49828;SDS011;35723;51.194;5.112;2023-08-07T11:53:48;10.55;;;2.60;;
49828;SDS011;35723;51.194;5.112;2023-08-07T11:56:14;5.95;;;2.20;;
49828;SDS011;35723;51.194;5.112;2023-08-07T11:58:40;5.65;;;2.33;;
49828;SDS011;35723;51.194;5.112;2023-08-07T12:01:16;5.05;;;2.35;;
49828;SDS011;35723;51.194;5.112;2023-08-07T12:06:20;6.15;;;2.33;;
49828;SDS011;35723;51.194;5.112;2023-08-07T12:08:47;4.40;;;1.88;;
49828;SDS011;35723;51.194;5.112;2023-08-07T12:11:17;10.00;;;2.60;;
49828;SDS011;35723;51.194;5.112;2023-08-07T12:13:44;3.15;;;1.73;;
49828;SDS011;35723;51.194;5.112;2023-08-07T12:16:10;7.10;;;1.98;;
49828;SDS011;35723;51.194;5.112;2023-08-07T12:18:42;6.50;;;1.95;;
49828;SDS011;35723;51.194;5.112;2023-08-07T12:21:16;7.20;;;2.00;;
49828;SDS011;35723;51.194;5.112;2023-08-07T12:23:48;4.70;;;1.80;;
49828;SDS011;35723;51.194;5.112;2023-08-07T12:26:15;5.45;;;2.10;;
49828;SDS011;35723;51.194;5.112;2023-08-07T12:28:41;4.25;;;2.10;;
49828;SDS011;35723;51.194;5.112;2023-08-07T12:31:07;5.57;;;2.17;;
49828;SDS011;35723;51.194;5.112;2023-08-07T12:33:33;4.82;;;1.90;;
49828;SDS011;35723;51.194;5.112;2023-08-07T12:35:59;4.60;;;1.90;;
49828;SDS011;35723;51.194;5.112;2023-08-07T12:38:25;4.68;;;1.90;;
49828;SDS011;35723;51.194;5.112;2023-08-07T12:40:51;3.75;;;2.10;;
49828;SDS011;35723;51.194;5.112;2023-08-07T12:43:17;6.40;;;2.00;;
49828;SDS011;35723;51.194;5.112;2023-08-07T12:45:43;3.67;;;1.88;;
49828;SDS011;35723;51.194;5.112;2023-08-07T12:48:09;8.20;;;2.17;;
49828;SDS011;35723;51.194;5.112;2023-08-07T12:50:35;5.70;;;2.00;;
49828;SDS011;35723;51.194;5.112;2023-08-07T12:53:00;2.88;;;1.63;;
49828;SDS011;35723;51.194;5.112;2023-08-07T12:55:26;3.72;;;1.85;;
49828;SDS011;35723;51.194;5.112;2023-08-07T12:57:53;9.23;;;2.05;;
49828;SDS011;35723;51.194;5.112;2023-08-07T13:00:19;3.88;;;1.80;;
49828;SDS011;35723;51.194;5.112;2023-08-07T13:02:46;5.00;;;2.05;;
49828;SDS011;35723;51.194;5.112;2023-08-07T13:05:14;5.75;;;2.20;;
49828;SDS011;35723;51.194;5.112;2023-08-07T13:07:42;4.35;;;1.90;;
49828;SDS011;35723;51.194;5.112;2023-08-07T13:10:09;4.30;;;1.90;;
49828;SDS011;35723;51.194;5.112;2023-08-07T13:12:37;5.40;;;2.10;;
49828;SDS011;35723;51.194;5.112;2023-08-07T13:15:04;4.75;;;1.80;;
49828;SDS011;35723;51.194;5.112;2023-08-07T13:17:32;4.93;;;2.00;;
49828;SDS011;35723;51.194;5.112;2023-08-07T13:19:58;5.65;;;1.90;;
49828;SDS011;35723;51.194;5.112;2023-08-07T13:22:24;5.07;;;1.90;;
49828;SDS011;35723;51.194;5.112;2023-08-07T13:24:50;5.93;;;2.20;;
49828;SDS011;35723;51.194;5.112;2023-08-07T13:27:15;5.38;;;1.98;;
49828;SDS011;35723;51.194;5.112;2023-08-07T13:29:41;7.35;;;2.10;;
49828;SDS011;35723;51.194;5.112;2023-08-07T13:32:07;5.63;;;2.15;;
49828;SDS011;35723;51.194;5.112;2023-08-07T13:34:36;5.32;;;2.00;;
49828;SDS011;35723;51.194;5.112;2023-08-07T13:37:02;4.28;;;2.10;;
49828;SDS011;35723;51.194;5.112;2023-08-07T13:39:29;7.43;;;2.10;;
49828;SDS011;35723;51.194;5.112;2023-08-07T13:41:54;6.20;;;2.10;;
49828;SDS011;35723;51.194;5.112;2023-08-07T13:44:20;5.70;;;2.22;;
49828;SDS011;35723;51.194;5.112;2023-08-07T13:46:47;5.25;;;1.80;;
49828;SDS011;35723;51.194;5.112;2023-08-07T13:49:13;3.65;;;1.90;;
49828;SDS011;35723;51.194;5.112;2023-08-07T13:51:39;3.63;;;1.92;;
49828;SDS011;35723;51.194;5.112;2023-08-07T13:54:05;6.78;;;1.90;;
49828;SDS011;35723;51.194;5.112;2023-08-07T13:56:31;7.05;;;2.00;;
49828;SDS011;35723;51.194;5.112;2023-08-07T13:58:57;3.45;;;2.00;;
49828;SDS011;35723;51.194;5.112;2023-08-07T14:01:23;5.03;;;2.13;;
49828;SDS011;35723;51.194;5.112;2023-08-07T14:03:48;3.22;;;1.80;;
49828;SDS011;35723;51.194;5.112;2023-08-07T14:06:14;3.10;;;2.00;;
49828;SDS011;35723;51.194;5.112;2023-08-07T14:08:39;5.28;;;1.70;;
49828;SDS011;35723;51.194;5.112;2023-08-07T14:11:05;4.03;;;1.60;;
49828;SDS011;35723;51.194;5.112;2023-08-07T14:13:31;3.97;;;1.50;;
49828;SDS011;35723;51.194;5.112;2023-08-07T14:15:57;3.88;;;1.58;;
49828;SDS011;35723;51.194;5.112;2023-08-07T14:18:22;2.35;;;1.58;;
49828;SDS011;35723;51.194;5.112;2023-08-07T14:20:48;2.70;;;1.30;;
49828;SDS011;35723;51.194;5.112;2023-08-07T14:23:13;2.22;;;1.33;;
49828;SDS011;35723;51.194;5.112;2023-08-07T14:25:39;3.15;;;1.23;;
49828;SDS011;35723;51.194;5.112;2023-08-07T14:28:04;2.13;;;0.98;;
49828;SDS011;35723;51.194;5.112;2023-08-07T14:30:32;2.75;;;1.20;;
49828;SDS011;35723;51.194;5.112;2023-08-07T14:32:58;3.20;;;1.20;;
49828;SDS011;35723;51.194;5.112;2023-08-07T14:35:24;6.93;;;1.42;;
49828;SDS011;35723;51.194;5.112;2023-08-07T14:37:49;4.18;;;1.30;;
49828;SDS011;35723;51.194;5.112;2023-08-07T14:40:15;4.45;;;1.25;;
49828;SDS011;35723;51.194;5.112;2023-08-07T14:42:41;5.22;;;1.60;;